Time;durP1;ratioP1;P1;durP2;ratioP2;P2;SDS_P1;SDS_P2;PMS_P1;PMS_P2;Temp;Humidity;BMP_temperature;BMP_pressure;BME280_temperature;BME280_humidity;BME280_pressure;Samples;Min_cycle;Max_cycle;Signal;HPM_P1;HPM_P2
2022/06/28 00:00:30;;;;;;;21.67;14.07;;;;;;;19.41;100.00;101012.97;5186597;28;20026;-76
2022/06/28 00:03:00;;;;;;;21.95;15.13;;;;;;;19.25;100.00;101016.72;5186440;28;20416;-76
2022/06/28 00:05:31;;;;;;;19.55;13.70;;;;;;;19.24;100.00;101025.63;5196758;28;20053;-76
2022/06/28 00:08:01;;;;;;;19.40;13.15;;;;;;;19.38;100.00;101026.44;5188157;28;20057;-76
2022/06/28 00:10:32;;;;;;;21.17;13.50;;;;;;;19.48;100.00;101038.13;5186053;28;20034;-76
2022/06/28 00:13:03;;;;;;;23.65;14.35;;;;;;;19.49;100.00;101044.31;5186327;28;20026;-76
2022/06/28 00:18:23;;;;;;;20.73;14.52;;;;;;;19.46;100.00;101061.25;5179456;28;20518;-76
2022/06/28 00:20:53;;;;;;;19.85;13.05;;;;;;;19.49;100.00;101069.03;5196160;28;20037;-76
2022/06/28 00:23:23;;;;;;;20.63;14.18;;;;;;;19.61;100.00;101067.38;5178476;28;20054;-76
2022/06/28 00:25:54;;;;;;;22.27;14.27;;;;;;;19.48;100.00;101077.06;5182743;28;20051;-76
2022/06/28 00:28:25;;;;;;;21.15;14.82;;;;;;;19.47;100.00;101076.19;5185528;28;20499;-76
2022/06/28 00:30:55;;;;;;;23.05;13.73;;;;;;;19.65;100.00;101069.72;5185691;28;20038;-76
2022/06/28 00:33:26;;;;;;;23.13;14.40;;;;;;;19.59;100.00;101069.28;5187289;28;20028;-76
2022/06/28 00:35:56;;;;;;;21.05;14.63;;;;;;;19.47;100.00;101065.59;5196791;28;20090;-76
2022/06/28 00:38:26;;;;;;;25.23;15.88;;;;;;;19.25;100.00;101065.28;5182221;28;20029;-76
2022/06/28 00:40:57;;;;;;;21.35;14.98;;;;;;;19.33;100.00;101068.31;5209993;23;20046;-72
2022/06/28 00:43:28;;;;;;;24.90;16.40;;;;;;;19.14;100.00;101067.69;5201647;28;20037;-71
2022/06/28 00:45:58;;;;;;;19.20;14.85;;;;;;;19.08;100.00;101070.75;5203055;28;20033;-72
2022/06/28 00:48:28;;;;;;;19.17;13.88;;;;;;;19.12;100.00;101074.91;5202707;28;20104;-72
2022/06/28 00:50:59;;;;;;;16.77;11.80;;;;;;;19.13;100.00;101075.78;5203013;28;20026;-72
2022/06/28 00:53:29;;;;;;;17.08;11.52;;;;;;;19.04;100.00;101077.19;5202662;28;20546;-71
2022/06/28 00:55:59;;;;;;;14.93;10.32;;;;;;;18.93;100.00;101089.41;5203120;28;20032;-72
2022/06/28 00:58:30;;;;;;;12.45;9.20;;;;;;;18.93;100.00;101084.09;5202415;28;20036;-72
2022/06/28 01:01:00;;;;;;;11.23;8.40;;;;;;;18.82;100.00;101089.19;5202947;28;20377;-71
2022/06/28 01:03:31;;;;;;;12.68;9.40;;;;;;;18.79;100.00;101095.53;5202555;28;20033;-72
2022/06/28 01:06:01;;;;;;;12.07;8.63;;;;;;;18.92;100.00;101095.66;5202177;28;20080;-72
2022/06/28 01:08:32;;;;;;;9.93;7.63;;;;;;;18.86;100.00;101091.56;5202112;28;20395;-72
2022/06/28 01:11:18;;;;;;;10.57;7.45;;;;;;;18.93;100.00;101100.84;5202848;28;20108;-72
2022/06/28 01:13:49;;;;;;;11.88;6.85;;;;;;;19.01;100.00;101109.19;5199501;28;20056;-72
2022/06/28 01:16:21;;;;;;;9.57;6.95;;;;;;;19.06;100.00;101108.88;5202074;28;20045;-72
2022/06/28 01:18:52;;;;;;;9.48;6.60;;;;;;;19.02;100.00;101108.25;5202074;28;20388;-72
2022/06/28 01:21:29;;;;;;;10.48;6.20;;;;;;;19.09;100.00;101104.25;5202483;28;20079;-72
2022/06/28 01:24:00;;;;;;;10.32;6.00;;;;;;;19.03;100.00;101096.69;5202306;28;20025;-72
2022/06/28 01:26:31;;;;;;;6.78;5.60;;;;;;;19.00;100.00;101102.19;5202014;28;20095;-71
2022/06/28 01:29:02;;;;;;;8.68;5.25;;;;;;;18.91;100.00;101099.25;5202149;28;20548;-72
2022/06/28 01:31:33;;;;;;;7.85;5.47;;;;;;;18.69;100.00;101108.59;5192225;28;20029;-71
2022/06/28 01:34:03;;;;;;;7.57;4.75;;;;;;;18.86;100.00;101103.97;5201916;28;20029;-72
2022/06/28 01:36:34;;;;;;;6.90;5.20;;;;;;;18.64;100.00;101103.56;5201991;28;20192;-71
2022/06/28 01:39:04;;;;;;;9.13;5.18;;;;;;;18.60;100.00;101106.47;5202197;28;20113;-72
2022/06/28 01:41:34;;;;;;;8.38;5.57;;;;;;;18.62;100.00;101105.44;5201912;28;20029;-73
2022/06/28 01:44:08;;;;;;;7.97;5.00;;;;;;;18.71;100.00;101115.47;5201884;28;20032;-73
2022/06/28 01:46:39;;;;;;;9.68;5.32;;;;;;;18.74;100.00;101107.38;5201888;28;20441;-73
2022/06/28 01:49:09;;;;;;;7.25;5.15;;;;;;;18.64;100.00;101098.25;5200519;28;20027;-74
2022/06/28 01:51:39;;;;;;;6.50;4.90;;;;;;;18.72;100.00;101103.09;5201936;28;20537;-73
2022/06/28 01:54:10;;;;;;;8.23;4.97;;;;;;;18.57;100.00;101101.38;5201796;28;20048;-74
2022/06/28 01:56:42;;;;;;;8.55;5.32;;;;;;;18.46;100.00;101101.16;5201163;28;20035;-74
2022/06/28 01:59:13;;;;;;;9.13;5.30;;;;;;;18.54;100.00;101104.22;5201639;28;20028;-74
2022/06/28 02:01:43;;;;;;;8.25;5.30;;;;;;;18.48;100.00;101099.28;5202068;28;20466;-74
2022/06/28 02:04:23;;;;;;;9.13;4.82;;;;;;;18.47;100.00;101103.72;5197421;28;20434;-73
2022/06/28 02:06:54;;;;;;;8.82;5.47;;;;;;;18.32;100.00;101101.13;5198663;28;20463;-74
2022/06/28 02:09:25;;;;;;;7.10;4.63;;;;;;;18.41;100.00;101106.75;5207974;28;20132;-73
2022/06/28 02:11:56;;;;;;;7.75;4.80;;;;;;;18.50;100.00;101102.69;5201646;28;20091;-73
2022/06/28 02:14:26;;;;;;;8.15;4.70;;;;;;;18.50;100.00;101103.53;5201492;28;20017;-73
2022/06/28 02:16:57;;;;;;;9.30;5.10;;;;;;;18.33;100.00;101102.84;5201512;28;20029;-74
2022/06/28 02:19:27;;;;;;;12.75;5.18;;;;;;;18.34;100.00;101101.91;5199830;28;20581;-73
2022/06/28 02:21:57;;;;;;;6.63;5.15;;;;;;;18.43;100.00;101103.97;5201297;28;20029;-74
2022/06/28 02:24:29;;;;;;;7.82;5.13;;;;;;;18.26;100.00;101109.38;5200993;28;20473;-73
2022/06/28 02:27:00;;;;;;;8.77;5.22;;;;;;;18.33;100.00;101103.69;5200892;28;20033;-74
2022/06/28 02:29:30;;;;;;;8.77;5.13;;;;;;;18.35;100.00;101109.72;5200730;28;20029;-74
2022/06/28 02:32:00;;;;;;;7.90;5.45;;;;;;;18.33;100.00;101106.31;5200534;28;20033;-73
2022/06/28 02:40:22;;;;;;;8.05;5.45;;;;;;;18.13;100.00;101108.38;5200767;28;20118;-73
2022/06/28 02:42:54;;;;;;;8.88;5.07;;;;;;;18.23;100.00;101113.06;5197138;28;20036;-73
2022/06/28 02:45:30;;;;;;;7.93;5.30;;;;;;;18.13;100.00;101105.72;5200779;28;20029;-74
2022/06/28 02:48:00;;;;;;;;;;;;;;;18.03;100.00;101110.72;5200714;28;20033;-73
2022/06/28 02:50:31;;;;;;;7.23;5.50;;;;;;;17.90;100.00;101119.44;5199803;28;20389;-73
2022/06/28 02:53:01;;;;;;;8.60;5.70;;;;;;;17.93;100.00;101103.38;5201228;28;20044;-74
2022/06/28 02:55:32;;;;;;;9.00;5.30;;;;;;;17.90;100.00;101114.16;5200951;28;20025;-73
2022/06/28 02:58:02;;;;;;;8.25;5.45;;;;;;;17.88;100.00;101116.91;5198218;28;20036;-73
2022/06/28 03:00:33;;;;;;;9.75;5.60;;;;;;;17.75;100.00;101125.59;5199950;28;20037;-73
2022/06/28 03:03:03;;;;;;;10.75;5.65;;;;;;;17.63;100.00;101126.31;5200089;28;20029;-73
2022/06/28 03:05:35;;;;;;;9.85;5.75;;;;;;;17.53;100.00;101119.81;5195193;28;20104;-73
2022/06/28 03:08:05;;;;;;;12.15;6.05;;;;;;;17.54;100.00;101124.16;5200233;28;20021;-73
2022/06/28 03:10:36;;;;;;;10.93;6.13;;;;;;;17.61;100.00;101117.56;5200650;28;20036;-74
2022/06/28 03:13:06;;;;;;;9.30;6.00;;;;;;;17.60;100.00;101134.38;5200831;28;20498;-74
2022/06/28 03:15:36;;;;;;;9.50;6.28;;;;;;;17.57;100.00;101137.19;5200231;28;20116;-73
2022/06/28 03:18:07;;;;;;;8.63;6.03;;;;;;;17.61;100.00;101144.00;5199842;28;20068;-72
2022/06/28 03:20:37;;;;;;;9.23;6.40;;;;;;;17.59;100.00;101151.19;5200166;28;20223;-73
2022/06/28 03:23:08;;;;;;;8.32;5.80;;;;;;;17.61;100.00;101154.59;5195183;28;20043;-73
2022/06/28 03:25:38;;;;;;;7.53;5.50;;;;;;;17.67;100.00;101164.84;5199053;28;20044;-74
2022/06/28 03:28:09;;;;;;;10.85;6.35;;;;;;;17.86;100.00;101168.16;5199228;28;20184;-73
2022/06/28 03:30:39;;;;;;;9.75;6.30;;;;;;;18.03;100.00;101157.50;5200559;28;20180;-73
2022/06/28 03:33:10;;;;;;;9.65;6.03;;;;;;;17.99;100.00;101166.53;5200418;28;20517;-74
2022/06/28 03:35:40;;;;;;;10.73;5.68;;;;;;;17.82;100.00;101161.34;5200260;28;20052;-73
2022/06/28 03:38:10;;;;;;;7.82;4.70;;;;;;;17.94;100.00;101168.56;5199781;28;20491;-73
2022/06/28 03:40:41;;;;;;;9.05;4.85;;;;;;;17.68;100.00;101177.13;5200515;28;20041;-73
2022/06/28 03:43:11;;;;;;;6.03;4.20;;;;;;;17.53;100.00;101175.31;5200612;28;20033;-73
2022/06/28 03:45:41;;;;;;;8.55;4.10;;;;;;;17.67;100.00;101183.34;5200493;28;20017;-73
2022/06/28 03:48:12;;;;;;;6.32;3.83;;;;;;;17.50;100.00;101191.34;5198653;28;20475;-73
2022/06/28 03:50:43;;;;;;;7.50;4.05;;;;;;;17.64;100.00;101202.03;5199717;28;20088;-73
2022/06/28 03:53:13;;;;;;;6.43;4.05;;;;;;;17.73;100.00;101206.81;5200089;28;20021;-73
2022/06/28 03:55:43;;;;;;;9.10;3.50;;;;;;;17.78;99.51;101210.03;5200037;28;20052;-73
2022/06/28 03:58:14;;;;;;;7.50;3.72;;;;;;;17.56;99.93;101210.38;5199113;28;20422;-72
2022/06/28 04:00:44;;;;;;;5.10;3.50;;;;;;;17.50;98.92;101228.34;5199827;28;20411;-74
2022/06/28 04:03:14;;;;;;;6.68;3.53;;;;;;;17.26;100.00;101226.97;5195743;28;20450;-74
2022/06/28 04:05:45;;;;;;;4.65;3.22;;;;;;;17.44;99.60;101228.66;5199156;28;20040;-74
2022/06/28 04:08:15;;;;;;;5.78;3.60;;;;;;;17.35;98.99;101231.81;5199129;28;20025;-72
2022/06/28 04:10:46;;;;;;;6.03;3.38;;;;;;;17.44;98.70;101226.88;5199867;28;20189;-73
2022/06/28 04:13:16;;;;;;;9.93;3.80;;;;;;;17.61;98.73;101231.25;5199208;28;20029;-73
2022/06/28 04:15:47;;;;;;;4.78;3.70;;;;;;;17.58;97.99;101234.06;5203724;28;20201;-73
2022/06/28 04:18:17;;;;;;;6.50;3.60;;;;;;;17.55;97.65;101231.59;5201341;28;20033;-73
2022/06/28 04:20:47;;;;;;;7.93;3.40;;;;;;;17.63;97.43;101226.75;5202753;28;20072;-73
2022/06/28 04:23:18;;;;;;;5.60;2.97;;;;;;;17.68;97.23;101225.56;5203063;28;20064;-73
2022/06/28 04:25:48;;;;;;;9.43;4.05;;;;;;;17.67;95.91;101233.59;5203891;28;20197;-73
2022/06/28 04:28:18;;;;;;;9.02;3.83;;;;;;;17.72;96.41;101228.91;5202828;28;20100;-73
2022/06/28 04:30:49;;;;;;;5.60;3.83;;;;;;;17.43;97.04;101243.69;5203213;28;20083;-74
2022/06/28 04:33:19;;;;;;;7.85;3.83;;;;;;;17.46;96.98;101250.59;5203090;28;20022;-74
2022/06/28 04:35:49;;;;;;;6.40;4.00;;;;;;;17.30;98.40;101249.66;5203682;28;20483;-74
2022/06/28 04:38:20;;;;;;;10.20;4.47;;;;;;;17.21;98.58;101250.13;5201960;28;20033;-73
2022/06/28 04:40:50;;;;;;;7.13;3.80;;;;;;;17.33;98.36;101254.78;5193475;28;20193;-74
2022/06/28 04:43:20;;;;;;;6.72;4.22;;;;;;;17.28;98.46;101262.94;5203471;28;20029;-73
2022/06/28 04:45:51;;;;;;;10.75;4.88;;;;;;;17.36;98.44;101258.16;5202662;28;20296;-73
2022/06/28 04:48:21;;;;;;;8.95;4.60;;;;;;;17.31;98.21;101261.94;5202525;28;20028;-74
2022/06/28 04:50:51;;;;;;;7.18;5.07;;;;;;;17.33;98.47;101268.00;5203067;28;20041;-73
2022/06/28 04:53:22;;;;;;;10.85;5.35;;;;;;;17.25;99.18;101264.88;5202668;28;20108;-74
2022/06/28 04:55:52;;;;;;;7.47;4.45;;;;;;;17.37;99.42;101267.81;5202727;28;20458;-73
2022/06/28 04:58:22;;;;;;;11.40;5.13;;;;;;;17.50;97.86;101274.13;5200518;28;20025;-73
2022/06/28 05:00:53;;;;;;;8.55;5.63;;;;;;;17.57;97.87;101264.09;5202692;28;20079;-73
2022/06/28 05:03:23;;;;;;;9.00;5.95;;;;;;;17.61;96.47;101276.19;5202349;28;20025;-73
2022/06/28 05:05:53;;;;;;;10.07;5.90;;;;;;;17.68;96.79;101272.31;5202280;28;20079;-72
2022/06/28 05:08:24;;;;;;;8.88;5.82;;;;;;;17.44;97.79;101268.31;5202840;28;20056;-72
2022/06/28 05:10:54;;;;;;;9.75;5.05;;;;;;;17.71;96.90;101272.13;5202474;28;20487;-72
2022/06/28 05:13:24;;;;;;;8.70;5.40;;;;;;;17.51;96.24;101267.06;5202165;28;20482;-72
2022/06/28 05:15:55;;;;;;;6.85;5.00;;;;;;;17.48;96.79;101273.34;5202449;28;20034;-72
2022/06/28 05:18:25;;;;;;;9.05;4.88;;;;;;;17.63;96.95;101258.50;5201415;28;20566;-73
2022/06/28 05:20:55;;;;;;;12.73;5.72;;;;;;;17.62;95.45;101262.06;5201740;28;20029;-72
2022/06/28 05:23:26;;;;;;;8.40;5.20;;;;;;;17.74;95.59;101254.31;5201878;28;20471;-73
2022/06/28 05:25:56;;;;;;;7.80;4.93;;;;;;;17.85;94.89;101251.09;5201480;28;20549;-72
2022/06/28 05:28:27;;;;;;;8.95;5.53;;;;;;;17.95;94.85;101250.50;5201539;28;20026;-73
2022/06/28 05:30:57;;;;;;;7.70;5.07;;;;;;;17.77;96.31;101240.06;5200934;28;20038;-73
2022/06/28 05:33:27;;;;;;;7.90;4.85;;;;;;;17.99;94.65;101248.56;5200896;28;20017;-73
2022/06/28 05:35:58;;;;;;;7.50;5.38;;;;;;;18.46;93.38;101239.69;5199498;28;20049;-73
2022/06/28 05:38:30;;;;;;;10.27;5.60;;;;;;;18.19;92.37;101246.50;5200367;28;20025;-73
2022/06/28 05:41:00;;;;;;;9.23;5.47;;;;;;;18.22;93.02;101243.69;5201030;28;20033;-73
2022/06/28 05:43:30;;;;;;;7.10;5.15;;;;;;;18.28;93.21;101231.91;5201361;28;20036;-73
2022/06/28 05:46:01;;;;;;;10.65;6.00;;;;;;;18.40;91.26;101242.69;5201599;28;20025;-74
2022/06/28 05:48:31;;;;;;;7.63;5.03;;;;;;;18.49;91.96;101247.44;5200626;28;20104;-72
2022/06/28 05:51:03;;;;;;;9.63;5.55;;;;;;;18.49;91.67;101246.59;5199562;28;20387;-73
2022/06/28 05:53:33;;;;;;;9.85;5.18;;;;;;;18.48;90.88;101251.03;5202211;28;20425;-73
2022/06/28 05:56:03;;;;;;;9.43;5.75;;;;;;;18.34;93.31;101252.78;5201428;28;20037;-72
2022/06/28 05:58:34;;;;;;;9.65;6.05;;;;;;;18.52;91.59;101257.00;5199222;28;20044;-73
2022/06/28 06:01:04;;;;;;;11.20;6.53;;;;;;;18.76;89.87;101259.09;5201566;28;20033;-72
2022/06/28 06:03:35;;;;;;;10.90;5.93;;;;;;;19.14;89.33;101263.00;5201259;28;20037;-74
2022/06/28 06:06:06;;;;;;;10.27;5.43;;;;;;;19.42;88.81;101250.66;5201429;28;20057;-73
2022/06/28 06:08:36;;;;;;;8.73;5.97;;;;;;;19.60;86.56;101262.78;5200392;28;20037;-73
2022/06/28 06:11:09;;;;;;;6.72;4.85;;;;;;;20.66;83.11;101259.50;5200335;28;20272;-74
2022/06/28 06:13:40;;;;;;;9.73;5.80;;;;;;;20.36;82.97;101259.69;5201043;28;20422;-73
2022/06/28 06:16:10;;;;;;;7.82;5.18;;;;;;;20.41;82.61;101246.09;5200998;28;20033;-73
2022/06/28 06:18:40;;;;;;;10.00;5.45;;;;;;;19.92;83.36;101251.03;5200563;28;20393;-73
2022/06/28 06:21:10;;;;;;;8.13;5.22;;;;;;;20.46;82.80;101263.44;5200951;28;20033;-73
2022/06/28 06:23:41;;;;;;;8.98;4.90;;;;;;;20.53;80.35;101262.09;5201320;28;20075;-73
2022/06/28 06:26:11;;;;;;;9.20;5.22;;;;;;;20.23;82.84;101263.22;5200520;28;20394;-71
2022/06/28 06:28:41;;;;;;;6.55;4.30;;;;;;;20.70;82.63;101269.81;5200184;28;20483;-73
2022/06/28 06:31:12;;;;;;;10.50;5.00;;;;;;;21.07;80.11;101274.41;5200721;28;20028;-73
2022/06/28 06:33:42;;;;;;;10.38;4.90;;;;;;;20.89;79.17;101268.50;5200472;28;20033;-74
2022/06/28 06:36:13;;;;;;;9.38;4.43;;;;;;;21.12;79.82;101278.47;5190201;28;20052;-73
2022/06/28 06:38:43;;;;;;;7.03;4.68;;;;;;;20.72;81.76;101278.53;5200349;28;20056;-74
2022/06/28 06:41:13;;;;;;;7.47;5.10;;;;;;;20.50;82.24;101278.22;5222711;23;20187;-72
2022/06/28 06:43:44;;;;;;;8.30;4.22;;;;;;;21.55;78.47;101284.34;5198913;28;20512;-73
2022/06/28 06:46:14;;;;;;;7.32;4.03;;;;;;;21.40;77.85;101280.09;5195825;28;20076;-72
2022/06/28 06:48:45;;;;;;;8.35;4.90;;;;;;;20.66;81.06;101283.41;5201036;28;20383;-73
2022/06/28 06:51:15;;;;;;;6.82;4.60;;;;;;;20.98;80.59;101286.50;5192356;28;20373;-73
2022/06/28 06:53:45;;;;;;;7.25;4.38;;;;;;;20.95;78.49;101283.19;5180187;28;20030;-73
2022/06/28 06:56:16;;;;;;;8.07;3.92;;;;;;;20.94;79.96;101285.03;5176549;28;20022;-70
2022/06/28 06:58:46;;;;;;;7.75;4.25;;;;;;;21.69;78.12;101290.44;5179268;28;20152;-73
2022/06/28 07:01:16;;;;;;;7.28;3.97;;;;;;;22.22;76.09;101286.66;5179889;28;20498;-73
2022/06/28 07:03:47;;;;;;;5.30;3.75;;;;;;;23.15;73.54;101278.69;5180243;28;20478;-73
2022/06/28 07:06:17;;;;;;;6.60;3.67;;;;;;;23.39;71.76;101275.94;5178198;28;20468;-73
2022/06/28 07:08:47;;;;;;;10.70;3.80;;;;;;;22.63;73.21;101279.16;5179959;28;20489;-73
2022/06/28 07:11:18;;;;;;;7.97;3.25;;;;;;;21.97;73.80;101290.22;5179931;28;20026;-73
2022/06/28 07:13:48;;;;;;;4.97;2.92;;;;;;;22.08;73.75;101290.28;5180183;28;20041;-73
2022/06/28 07:16:18;;;;;;;9.60;3.50;;;;;;;23.20;70.67;101281.84;5179379;28;20025;-74
2022/06/28 07:18:49;;;;;;;4.68;2.67;;;;;;;23.53;69.83;101281.06;5184260;28;20022;-74
2022/06/28 07:21:19;;;;;;;5.90;2.75;;;;;;;24.12;68.16;101275.41;5188095;28;20062;-74
2022/06/28 07:23:50;;;;;;;5.40;2.70;;;;;;;24.21;67.81;101287.19;5180116;28;20037;-74
2022/06/28 07:26:20;;;;;;;5.43;3.00;;;;;;;23.23;70.47;101294.09;5179521;28;20029;-73
2022/06/28 07:28:51;;;;;;;4.90;2.28;;;;;;;23.35;69.31;101282.50;5191636;28;20025;-73
2022/06/28 07:31:21;;;;;;;4.10;2.30;;;;;;;24.33;65.08;101281.69;5179577;28;20395;-73
2022/06/28 07:33:51;;;;;;;5.03;2.30;;;;;;;24.68;65.20;101279.69;5179076;28;20033;-72
2022/06/28 07:36:22;;;;;;;7.30;2.10;;;;;;;25.61;64.83;101279.69;5179106;28;20021;-72
2022/06/28 07:38:54;;;;;;;4.57;2.55;;;;;;;26.46;62.44;101281.88;5177829;28;20120;-74
2022/06/28 07:41:24;;;;;;;6.63;2.60;;;;;;;25.87;62.55;101286.34;5179532;28;20029;-73
2022/06/28 07:43:55;;;;;;;5.45;2.30;;;;;;;25.52;64.02;101292.03;5178284;28;20037;-73
2022/06/28 07:46:25;;;;;;;4.63;2.30;;;;;;;25.09;63.95;101290.44;5180602;28;20025;-73
2022/06/28 07:48:55;;;;;;;4.15;1.98;;;;;;;24.47;65.41;101291.25;5187769;28;20036;-74
2022/06/28 07:54:15;;;;;;;4.45;1.90;;;;;;;24.24;64.62;101297.63;5179899;28;20036;-74
2022/06/28 07:56:45;;;;;;;4.40;2.00;;;;;;;25.56;62.40;101288.16;5187462;28;20029;-74
2022/06/28 07:59:15;;;;;;;4.57;2.10;;;;;;;25.91;61.46;101293.13;5190580;28;20026;-74
2022/06/28 08:01:46;;;;;;;3.92;1.85;;;;;;;27.00;59.13;101288.47;5183464;28;20029;-73
2022/06/28 08:04:16;;;;;;;5.00;1.50;;;;;;;27.26;56.27;101292.31;5182918;28;20100;-72
2022/06/28 08:06:46;;;;;;;3.28;1.40;;;;;;;27.22;55.91;101305.16;5182229;28;20569;-73
2022/06/28 08:09:17;;;;;;;4.63;1.53;;;;;;;27.86;54.98;101303.50;5181103;28;20034;-74
2022/06/28 08:11:47;;;;;;;4.70;1.85;;;;;;;28.69;53.14;101306.91;5182436;28;20307;-73
2022/06/28 08:14:17;;;;;;;4.43;1.40;;;;;;;28.74;52.15;101296.53;5182634;28;20060;-74
2022/06/28 08:16:48;;;;;;;3.07;1.40;;;;;;;28.23;52.20;101298.94;5182053;28;20372;-74
2022/06/28 08:19:19;;;;;;;4.05;1.40;;;;;;;28.96;52.49;101299.66;5188184;28;20281;-73
2022/06/28 08:21:50;;;;;;;4.20;1.40;;;;;;;28.04;54.08;101301.72;5189721;28;20045;-72
2022/06/28 08:24:20;;;;;;;2.47;1.08;;;;;;;28.25;50.51;101305.03;5183058;28;20428;-72
2022/06/28 08:26:52;;;;;;;6.13;1.50;;;;;;;27.18;53.50;101308.25;5185321;28;20095;-72
2022/06/28 08:29:23;;;;;;;2.15;0.80;;;;;;;29.02;50.91;101290.94;5191907;28;20018;-72
2022/06/28 08:31:53;;;;;;;6.32;1.30;;;;;;;29.13;51.26;101300.63;5183520;28;20081;-72
2022/06/28 08:34:23;;;;;;;2.33;1.10;;;;;;;28.83;49.01;101298.28;5181924;28;20025;-72
2022/06/28 08:36:54;;;;;;;3.05;1.15;;;;;;;28.77;50.33;101296.22;5182484;28;20170;-72
2022/06/28 08:39:24;;;;;;;2.70;0.90;;;;;;;29.23;49.72;101298.72;5181408;28;20026;-73
2022/06/28 08:41:57;;;;;;;3.23;1.00;;;;;;;29.56;49.00;101297.97;5182784;28;20061;-72
2022/06/28 08:44:32;;;;;;;2.75;0.82;;;;;;;29.37;46.42;101303.53;5197804;28;20770;-72
2022/06/28 08:47:03;;;;;;;3.22;0.80;;;;;;;28.82;47.81;101304.66;5181999;28;20025;-72
2022/06/28 08:49:55;;;;;;;2.03;0.63;;;;;;;30.22;46.14;101307.97;5181419;28;20117;-71
2022/06/28 08:52:25;;;;;;;2.88;0.98;;;;;;;30.36;45.09;101310.06;5180636;28;20092;-72
2022/06/28 08:54:56;;;;;;;2.30;0.80;;;;;;;30.55;45.76;101304.38;5183125;28;20018;-71
2022/06/28 08:57:30;;;;;;;4.68;1.02;;;;;;;30.50;45.88;101308.56;5181666;28;20034;-72
2022/06/28 09:00:00;;;;;;;2.20;0.80;;;;;;;30.45;46.85;101302.84;5197692;28;20455;-72
2022/06/28 09:02:31;;;;;;;3.20;0.70;;;;;;;30.91;46.19;101304.00;5182074;28;20057;-72
2022/06/28 09:05:03;;;;;;;2.45;0.68;;;;;;;30.01;47.26;101307.50;5181108;28;20041;-71
2022/06/28 09:07:34;;;;;;;2.60;0.70;;;;;;;29.35;48.33;101303.69;5181570;28;20045;-71
2022/06/28 09:10:05;;;;;;;2.33;0.80;;;;;;;28.54;49.17;101297.66;5181807;28;20834;-72
2022/06/28 09:12:35;;;;;;;3.75;0.70;;;;;;;28.93;46.66;101317.94;5181103;28;20034;-72
2022/06/28 09:15:06;;;;;;;4.00;0.90;;;;;;;29.08;47.07;101311.03;5180926;28;20052;-71
2022/06/28 09:17:36;;;;;;;2.55;0.70;;;;;;;28.50;46.58;101317.78;5196866;28;20033;-72
2022/06/28 09:20:08;;;;;;;3.88;0.70;;;;;;;27.26;47.63;101317.31;5195679;28;20040;-72
2022/06/28 09:22:41;;;;;;;2.22;0.70;;;;;;;28.83;48.63;101306.38;5181774;28;20120;-72
2022/06/28 09:25:24;;;;;;;2.58;0.93;;;;;;;28.47;47.84;101315.41;5181225;28;20107;-72
2022/06/28 09:27:57;;;;;;;2.65;0.80;;;;;;;29.33;47.29;101310.22;5179067;28;20033;-71
2022/06/28 09:30:30;;;;;;;5.43;0.98;;;;;;;29.08;49.01;101316.41;5180869;28;20077;-72
2022/06/28 09:33:03;;;;;;;2.63;0.60;;;;;;;30.10;47.42;101317.34;5181602;28;20418;-72
2022/06/28 09:35:33;;;;;;;3.92;0.82;;;;;;;29.62;49.43;101310.81;5181544;28;20052;-72
2022/06/28 09:38:03;;;;;;;3.70;0.82;;;;;;;29.00;47.81;101313.63;5180997;28;20030;-72
2022/06/28 09:40:36;;;;;;;4.28;0.80;;;;;;;26.84;52.21;101317.69;5179492;28;20061;-71
2022/06/28 09:43:12;;;;;;;3.85;0.82;;;;;;;26.61;52.27;101318.06;5181704;28;20387;-71
2022/06/28 09:45:46;;;;;;;4.88;1.08;;;;;;;26.29;52.01;101315.56;5181476;28;20032;-71
2022/06/28 09:48:18;;;;;;;3.95;1.10;;;;;;;25.97;53.43;101325.59;5177014;28;20018;-71
2022/06/28 09:50:56;;;;;;;3.00;0.73;;;;;;;26.88;52.98;101316.41;5180807;28;20095;-71
2022/06/28 09:53:29;;;;;;;3.10;0.80;;;;;;;28.75;50.83;101309.00;5181781;28;20049;-71
2022/06/28 09:56:06;;;;;;;4.13;0.90;;;;;;;29.11;51.08;101305.31;5180889;28;20034;-70
2022/06/28 09:58:37;;;;;;;3.97;0.70;;;;;;;29.98;48.66;101302.44;5179676;28;20080;-72
2022/06/28 10:01:07;;;;;;;3.78;0.90;;;;;;;29.76;48.35;101302.16;5179860;28;20029;-72
2022/06/28 10:03:38;;;;;;;5.72;0.95;;;;;;;30.42;48.24;101295.06;5179585;28;20053;-72
2022/06/28 10:06:08;;;;;;;5.20;1.00;;;;;;;28.61;48.76;101301.44;5181916;28;20032;-73
2022/06/28 10:08:40;;;;;;;4.30;1.20;;;;;;;29.11;48.90;101306.19;5180657;28;20037;-72
2022/06/28 10:11:11;;;;;;;6.70;1.10;;;;;;;27.93;51.14;101315.34;5179948;28;20423;-72
2022/06/28 10:16:57;;;;;;;4.30;0.90;;;;;;;26.37;53.76;101312.22;5180044;28;20025;-71
2022/06/28 10:19:28;;;;;;;4.05;0.98;;;;;;;26.32;53.23;101315.28;5185179;28;20048;-71
2022/06/28 10:22:01;;;;;;;4.47;0.80;;;;;;;27.20;53.33;101314.34;5187462;28;20518;-71
2022/06/28 10:24:51;;;;;;;3.22;1.08;;;;;;;26.16;53.62;101306.09;5179899;28;20034;-71
2022/06/28 10:27:22;;;;;;;3.28;1.08;;;;;;;25.24;57.38;101319.50;5180597;28;20018;-71
2022/06/28 10:30:00;;;;;;;2.70;0.90;;;;;;;25.43;56.34;101313.41;5184477;28;20026;-71
2022/06/28 10:33:05;;;;;;;5.50;0.90;;;;;;;24.84;56.89;101315.72;5178998;28;20052;-71
2022/06/28 10:35:35;;;;;;;2.65;0.75;;;;;;;25.00;56.25;101310.78;5179071;28;20026;-71
2022/06/28 10:38:08;;;;;;;2.97;1.00;;;;;;;24.83;57.61;101313.19;5179876;28;20064;-71
2022/06/28 10:40:49;;;;;;;4.65;1.00;;;;;;;25.04;57.63;101312.25;5179558;28;20380;-71
2022/06/28 10:43:29;;;;;;;2.85;0.90;;;;;;;24.81;56.98;101312.47;5177063;28;20026;-72
2022/06/28 10:46:09;;;;;;;4.72;1.00;;;;;;;25.50;56.31;101304.72;5180093;28;20626;-71
2022/06/28 10:48:49;;;;;;;5.72;1.15;;;;;;;26.11;54.55;101297.56;5181767;28;20534;-70
2022/06/28 10:51:20;;;;;;;7.45;0.98;;;;;;;25.09;55.80;101298.47;5185363;28;20498;-71
2022/06/28 10:54:04;;;;;;;5.40;1.05;;;;;;;25.09;56.28;101298.47;5180921;28;20104;-70
2022/06/28 10:56:39;;;;;;;7.05;1.00;;;;;;;25.15;58.52;101296.13;5182155;28;20537;-71
2022/06/28 10:59:15;;;;;;;4.60;1.03;;;;;;;25.02;56.20;101291.94;5185375;28;20087;-71
2022/06/28 11:01:52;;;;;;;4.70;1.02;;;;;;;24.13;58.36;101302.97;5176129;28;20360;-70
2022/06/28 11:04:24;;;;;;;6.13;1.17;;;;;;;24.78;57.98;101289.50;5180166;28;20026;-70
2022/06/28 11:06:59;;;;;;;3.75;0.90;;;;;;;25.01;56.85;101288.41;5179382;28;20025;-71
2022/06/28 11:09:59;;;;;;;6.03;1.15;;;;;;;24.50;57.16;101283.84;5179544;28;20026;-71
2022/06/28 11:12:35;;;;;;;3.15;0.93;;;;;;;24.49;57.74;101282.13;5167012;28;20053;-71
2022/06/28 11:15:09;;;;;;;3.72;1.10;;;;;;;;;;5178382;28;20029;-70
2022/06/28 11:17:43;;;;;;;3.67;1.10;;;;;;;24.71;57.59;101281.25;5178109;28;20056;-69
2022/06/28 11:20:19;;;;;;;2.95;0.85;;;;;;;24.39;56.60;101273.16;5188870;28;20507;-71
2022/06/28 11:22:51;;;;;;;6.57;1.45;;;;;;;23.76;58.54;101275.63;5176194;28;20080;-71
2022/06/28 11:25:23;;;;;;;2.92;0.85;;;;;;;23.96;59.05;101274.94;5178783;28;20088;-72
2022/06/28 11:27:56;;;;;;;3.83;0.75;;;;;;;23.68;59.04;101278.03;5176969;28;20120;-71
2022/06/28 11:30:28;;;;;;;2.47;1.00;;;;;;;24.31;59.15;101280.97;5182456;28;20106;-70
2022/06/28 11:32:59;;;;;;;3.00;1.00;;;;;;;24.26;59.71;101274.28;5186277;28;20063;-71
2022/06/28 11:35:30;;;;;;;5.00;1.30;;;;;;;24.11;60.86;101265.69;5179922;28;20621;-71
2022/06/28 11:38:02;;;;;;;4.40;1.00;;;;;;;24.57;59.52;101266.34;5156216;28;20042;-70
2022/06/28 11:40:40;;;;;;;3.30;0.75;;;;;;;24.18;58.24;101271.41;5179349;28;20030;-70
2022/06/28 11:43:12;;;;;;;4.22;0.90;;;;;;;24.65;58.86;101268.38;5178041;28;20077;-70
2022/06/28 11:45:45;;;;;;;5.05;0.88;;;;;;;24.84;58.09;101264.91;5179770;28;20100;-71
2022/06/28 11:48:20;;;;;;;4.43;1.10;;;;;;;23.94;58.68;101266.19;5173971;28;20022;-69
2022/06/28 11:50:53;;;;;;;8.23;1.20;;;;;;;24.28;58.85;101267.88;5191410;28;20112;-71
2022/06/28 11:53:25;;;;;;;4.55;0.80;;;;;;;24.85;57.18;101249.72;5178893;28;20026;-70
2022/06/28 11:55:57;;;;;;;4.78;1.10;;;;;;;24.26;56.03;101259.13;5179330;28;20449;-71